sensor_id;sensor_type;location;lat;lon;timestamp;temperature;humidity
23233;DHT22;11785;49.500;8.288;2023-11-19T00:02:07;9.10;99.90
23233;DHT22;11785;49.500;8.288;2023-11-19T00:04:36;9.10;99.90
23233;DHT22;11785;49.500;8.288;2023-11-19T00:07:04;9.20;99.90
23233;DHT22;11785;49.500;8.288;2023-11-19T00:09:34;9.30;99.90
23233;DHT22;11785;49.500;8.288;2023-11-19T00:12:02;9.30;99.90
23233;DHT22;11785;49.500;8.288;2023-11-19T00:14:28;9.30;99.90
23233;DHT22;11785;49.500;8.288;2023-11-19T00:16:54;9.20;99.90
23233;DHT22;11785;49.500;8.288;2023-11-19T00:19:20;9.10;99.90
23233;DHT22;11785;49.500;8.288;2023-11-19T00:21:45;9.00;99.90
23233;DHT22;11785;49.500;8.288;2023-11-19T00:24:11;9.00;99.90
23233;DHT22;11785;49.500;8.288;2023-11-19T00:26:38;9.00;99.90
23233;DHT22;11785;49.500;8.288;2023-11-19T00:29:03;9.00;99.90
23233;DHT22;11785;49.500;8.288;2023-11-19T00:31:29;9.00;99.90
23233;DHT22;11785;49.500;8.288;2023-11-19T00:33:55;9.10;99.90
23233;DHT22;11785;49.500;8.288;2023-11-19T00:36:20;9.30;99.90
23233;DHT22;11785;49.500;8.288;2023-11-19T00:38:46;9.50;99.90
23233;DHT22;11785;49.500;8.288;2023-11-19T00:41:11;9.60;99.90
23233;DHT22;11785;49.500;8.288;2023-11-19T00:43:37;9.70;99.90
23233;DHT22;11785;49.500;8.288;2023-11-19T00:46:03;9.90;99.90
23233;DHT22;11785;49.500;8.288;2023-11-19T00:48:32;10.00;99.90
23233;DHT22;11785;49.500;8.288;2023-11-19T00:50:57;10.00;99.90
23233;DHT22;11785;49.500;8.288;2023-11-19T00:53:23;10.00;99.90
23233;DHT22;11785;49.500;8.288;2023-11-19T00:55:48;10.20;99.90
23233;DHT22;11785;49.500;8.288;2023-11-19T00:58:14;10.30;99.90
23233;DHT22;11785;49.500;8.288;2023-11-19T01:00:39;10.30;99.90
23233;DHT22;11785;49.500;8.288;2023-11-19T01:03:05;10.20;99.90
23233;DHT22;11785;49.500;8.288;2023-11-19T01:05:32;10.20;99.90
23233;DHT22;11785;49.500;8.288;2023-11-19T01:07:58;10.10;99.90
23233;DHT22;11785;49.500;8.288;2023-11-19T01:10:24;10.10;99.90
23233;DHT22;11785;49.500;8.288;2023-11-19T01:12:51;10.00;99.90
23233;DHT22;11785;49.500;8.288;2023-11-19T01:15:17;10.00;99.90
23233;DHT22;11785;49.500;8.288;2023-11-19T01:17:44;9.90;99.90
23233;DHT22;11785;49.500;8.288;2023-11-19T01:20:10;9.60;99.90
23233;DHT22;11785;49.500;8.288;2023-11-19T01:22:39;9.50;99.90
23233;DHT22;11785;49.500;8.288;2023-11-19T01:25:05;9.40;99.90
23233;DHT22;11785;49.500;8.288;2023-11-19T01:27:31;9.40;99.90
23233;DHT22;11785;49.500;8.288;2023-11-19T01:29:56;9.30;99.90
23233;DHT22;11785;49.500;8.288;2023-11-19T01:32:22;9.40;99.90
23233;DHT22;11785;49.500;8.288;2023-11-19T01:34:49;9.60;99.90
23233;DHT22;11785;49.500;8.288;2023-11-19T01:37:15;10.00;99.90
23233;DHT22;11785;49.500;8.288;2023-11-19T01:39:43;10.10;99.90
23233;DHT22;11785;49.500;8.288;2023-11-19T01:42:09;10.20;99.90
23233;DHT22;11785;49.500;8.288;2023-11-19T01:44:34;10.30;99.90
23233;DHT22;11785;49.500;8.288;2023-11-19T01:47:01;10.40;99.90
23233;DHT22;11785;49.500;8.288;2023-11-19T01:49:27;10.50;99.90
23233;DHT22;11785;49.500;8.288;2023-11-19T01:51:54;10.50;99.90
23233;DHT22;11785;49.500;8.288;2023-11-19T01:54:20;10.50;99.90
23233;DHT22;11785;49.500;8.288;2023-11-19T01:56:45;10.50;99.90
23233;DHT22;11785;49.500;8.288;2023-11-19T01:59:12;10.50;99.90
23233;DHT22;11785;49.500;8.288;2023-11-19T02:01:39;10.40;99.90
23233;DHT22;11785;49.500;8.288;2023-11-19T02:04:06;10.40;99.90
23233;DHT22;11785;49.500;8.288;2023-11-19T02:06:33;10.40;99.90
23233;DHT22;11785;49.500;8.288;2023-11-19T02:09:00;10.50;99.90
23233;DHT22;11785;49.500;8.288;2023-11-19T02:11:26;10.60;99.90
23233;DHT22;11785;49.500;8.288;2023-11-19T02:13:55;10.70;99.90
23233;DHT22;11785;49.500;8.288;2023-11-19T02:16:21;10.80;99.90
23233;DHT22;11785;49.500;8.288;2023-11-19T02:18:47;10.80;99.90
23233;DHT22;11785;49.500;8.288;2023-11-19T02:21:13;10.80;99.90
23233;DHT22;11785;49.500;8.288;2023-11-19T02:23:40;10.70;99.90
23233;DHT22;11785;49.500;8.288;2023-11-19T02:26:13;10.60;99.90
23233;DHT22;11785;49.500;8.288;2023-11-19T02:28:39;10.60;99.90
23233;DHT22;11785;49.500;8.288;2023-11-19T02:31:07;10.60;99.90
23233;DHT22;11785;49.500;8.288;2023-11-19T02:33:37;10.60;99.90
23233;DHT22;11785;49.500;8.288;2023-11-19T02:36:04;10.60;99.90
23233;DHT22;11785;49.500;8.288;2023-11-19T02:38:29;10.70;99.90
23233;DHT22;11785;49.500;8.288;2023-11-19T02:40:57;10.70;99.90
23233;DHT22;11785;49.500;8.288;2023-11-19T02:43:22;10.80;99.90
23233;DHT22;11785;49.500;8.288;2023-11-19T02:45:48;10.80;99.90
23233;DHT22;11785;49.500;8.288;2023-11-19T02:48:14;10.80;99.90
23233;DHT22;11785;49.500;8.288;2023-11-19T02:50:41;10.80;99.90
23233;DHT22;11785;49.500;8.288;2023-11-19T02:53:07;10.80;99.90
23233;DHT22;11785;49.500;8.288;2023-11-19T02:55:32;10.80;99.90
23233;DHT22;11785;49.500;8.288;2023-11-19T02:58:03;10.70;99.90
23233;DHT22;11785;49.500;8.288;2023-11-19T03:00:35;10.70;99.90
23233;DHT22;11785;49.500;8.288;2023-11-19T03:03:13;10.70;99.90
23233;DHT22;11785;49.500;8.288;2023-11-19T03:05:47;10.70;99.90
23233;DHT22;11785;49.500;8.288;2023-11-19T03:08:14;10.70;99.90
23233;DHT22;11785;49.500;8.288;2023-11-19T03:10:41;10.70;99.90
23233;DHT22;11785;49.500;8.288;2023-11-19T03:13:11;10.70;99.90
23233;DHT22;11785;49.500;8.288;2023-11-19T03:15:38;10.60;99.90
23233;DHT22;11785;49.500;8.288;2023-11-19T03:18:03;10.60;99.90
23233;DHT22;11785;49.500;8.288;2023-11-19T03:20:29;10.50;99.90
23233;DHT22;11785;49.500;8.288;2023-11-19T03:22:55;10.50;99.90
23233;DHT22;11785;49.500;8.288;2023-11-19T03:25:25;10.50;99.90
23233;DHT22;11785;49.500;8.288;2023-11-19T03:27:52;10.40;99.90
23233;DHT22;11785;49.500;8.288;2023-11-19T03:30:18;10.40;99.90
23233;DHT22;11785;49.500;8.288;2023-11-19T03:32:46;10.40;99.90
23233;DHT22;11785;49.500;8.288;2023-11-19T03:35:11;10.30;99.90
23233;DHT22;11785;49.500;8.288;2023-11-19T03:37:37;10.40;99.90
23233;DHT22;11785;49.500;8.288;2023-11-19T03:40:05;10.30;99.90
23233;DHT22;11785;49.500;8.288;2023-11-19T03:42:31;10.30;99.90
23233;DHT22;11785;49.500;8.288;2023-11-19T03:44:57;10.30;99.90
23233;DHT22;11785;49.500;8.288;2023-11-19T03:47:23;10.30;99.90
23233;DHT22;11785;49.500;8.288;2023-11-19T03:49:49;10.40;99.90
23233;DHT22;11785;49.500;8.288;2023-11-19T03:52:15;10.40;99.90
23233;DHT22;11785;49.500;8.288;2023-11-19T03:54:41;10.30;99.90
23233;DHT22;11785;49.500;8.288;2023-11-19T03:57:06;10.30;99.90
23233;DHT22;11785;49.500;8.288;2023-11-19T03:59:32;10.40;99.90
23233;DHT22;11785;49.500;8.288;2023-11-19T04:01:59;10.30;99.90
23233;DHT22;11785;49.500;8.288;2023-11-19T04:04:26;10.30;99.90
23233;DHT22;11785;49.500;8.288;2023-11-19T04:06:52;10.40;99.90
23233;DHT22;11785;49.500;8.288;2023-11-19T04:09:18;10.40;99.90
23233;DHT22;11785;49.500;8.288;2023-11-19T04:11:43;10.50;99.90
23233;DHT22;11785;49.500;8.288;2023-11-19T04:14:09;10.50;99.90
23233;DHT22;11785;49.500;8.288;2023-11-19T04:16:35;10.50;99.90
23233;DHT22;11785;49.500;8.288;2023-11-19T04:19:01;10.50;99.90
23233;DHT22;11785;49.500;8.288;2023-11-19T04:21:27;10.60;99.90
23233;DHT22;11785;49.500;8.288;2023-11-19T04:23:52;10.60;99.90
23233;DHT22;11785;49.500;8.288;2023-11-19T04:26:18;10.60;99.90
23233;DHT22;11785;49.500;8.288;2023-11-19T04:28:43;10.60;99.90
23233;DHT22;11785;49.500;8.288;2023-11-19T04:31:09;10.60;99.90
23233;DHT22;11785;49.500;8.288;2023-11-19T04:33:34;10.60;99.90
23233;DHT22;11785;49.500;8.288;2023-11-19T04:36:00;10.70;99.90
23233;DHT22;11785;49.500;8.288;2023-11-19T04:38:26;10.70;99.90
23233;DHT22;11785;49.500;8.288;2023-11-19T04:40:52;10.70;99.90
23233;DHT22;11785;49.500;8.288;2023-11-19T04:43:17;10.80;99.90
23233;DHT22;11785;49.500;8.288;2023-11-19T04:45:43;10.80;99.90
23233;DHT22;11785;49.500;8.288;2023-11-19T04:48:09;10.90;99.90
23233;DHT22;11785;49.500;8.288;2023-11-19T04:50:34;10.90;99.90
23233;DHT22;11785;49.500;8.288;2023-11-19T04:53:00;10.90;99.90
23233;DHT22;11785;49.500;8.288;2023-11-19T04:55:25;11.00;99.90
23233;DHT22;11785;49.500;8.288;2023-11-19T04:57:54;11.00;99.90
23233;DHT22;11785;49.500;8.288;2023-11-19T05:00:19;11.00;99.90
23233;DHT22;11785;49.500;8.288;2023-11-19T05:02:46;11.10;99.90
23233;DHT22;11785;49.500;8.288;2023-11-19T05:05:12;11.20;99.90
23233;DHT22;11785;49.500;8.288;2023-11-19T05:07:38;11.20;99.90
23233;DHT22;11785;49.500;8.288;2023-11-19T05:10:04;11.30;99.90
23233;DHT22;11785;49.500;8.288;2023-11-19T05:12:31;11.30;99.90
23233;DHT22;11785;49.500;8.288;2023-11-19T05:14:57;11.30;99.90
23233;DHT22;11785;49.500;8.288;2023-11-19T05:17:23;11.40;99.90
23233;DHT22;11785;49.500;8.288;2023-11-19T05:19:48;11.40;99.90
23233;DHT22;11785;49.500;8.288;2023-11-19T05:22:14;11.40;99.90
23233;DHT22;11785;49.500;8.288;2023-11-19T05:24:40;11.50;99.90
23233;DHT22;11785;49.500;8.288;2023-11-19T05:27:06;11.50;99.90
23233;DHT22;11785;49.500;8.288;2023-11-19T05:29:33;11.50;99.90
23233;DHT22;11785;49.500;8.288;2023-11-19T05:31:59;11.50;99.90
23233;DHT22;11785;49.500;8.288;2023-11-19T05:34:25;11.50;99.90
23233;DHT22;11785;49.500;8.288;2023-11-19T05:36:50;11.50;99.90
23233;DHT22;11785;49.500;8.288;2023-11-19T05:39:16;11.50;99.90
23233;DHT22;11785;49.500;8.288;2023-11-19T05:41:44;11.50;99.90
23233;DHT22;11785;49.500;8.288;2023-11-19T05:44:09;11.50;99.90
23233;DHT22;11785;49.500;8.288;2023-11-19T05:46:35;11.40;99.90
23233;DHT22;11785;49.500;8.288;2023-11-19T05:49:05;11.40;99.90
23233;DHT22;11785;49.500;8.288;2023-11-19T05:51:31;11.40;99.90
23233;DHT22;11785;49.500;8.288;2023-11-19T05:53:56;11.40;99.90
23233;DHT22;11785;49.500;8.288;2023-11-19T05:56:23;11.40;99.90
23233;DHT22;11785;49.500;8.288;2023-11-19T05:58:48;11.40;99.90
23233;DHT22;11785;49.500;8.288;2023-11-19T06:01:15;11.40;99.90
23233;DHT22;11785;49.500;8.288;2023-11-19T06:03:40;11.40;99.90
23233;DHT22;11785;49.500;8.288;2023-11-19T06:06:06;11.40;99.90
23233;DHT22;11785;49.500;8.288;2023-11-19T06:08:32;11.40;99.90
23233;DHT22;11785;49.500;8.288;2023-11-19T06:10:57;11.50;99.90
23233;DHT22;11785;49.500;8.288;2023-11-19T06:13:23;11.50;99.90
23233;DHT22;11785;49.500;8.288;2023-11-19T06:15:50;11.60;99.90
23233;DHT22;11785;49.500;8.288;2023-11-19T06:18:16;11.60;99.90
23233;DHT22;11785;49.500;8.288;2023-11-19T06:20:43;11.70;99.90
23233;DHT22;11785;49.500;8.288;2023-11-19T06:23:08;11.80;99.90
23233;DHT22;11785;49.500;8.288;2023-11-19T06:25:34;11.80;99.90
23233;DHT22;11785;49.500;8.288;2023-11-19T06:28:00;11.80;99.90
23233;DHT22;11785;49.500;8.288;2023-11-19T06:30:26;11.80;99.90
23233;DHT22;11785;49.500;8.288;2023-11-19T06:32:53;11.80;99.90
23233;DHT22;11785;49.500;8.288;2023-11-19T06:35:19;11.90;99.90
23233;DHT22;11785;49.500;8.288;2023-11-19T06:37:45;11.80;99.90
23233;DHT22;11785;49.500;8.288;2023-11-19T06:40:10;11.80;99.90
23233;DHT22;11785;49.500;8.288;2023-11-19T06:42:37;11.80;99.90
23233;DHT22;11785;49.500;8.288;2023-11-19T06:45:04;11.80;99.90
23233;DHT22;11785;49.500;8.288;2023-11-19T06:47:29;11.80;99.90
23233;DHT22;11785;49.500;8.288;2023-11-19T06:49:55;11.70;99.90
23233;DHT22;11785;49.500;8.288;2023-11-19T06:52:21;11.70;99.90
23233;DHT22;11785;49.500;8.288;2023-11-19T06:54:47;11.70;99.90
23233;DHT22;11785;49.500;8.288;2023-11-19T06:57:13;11.70;99.90
23233;DHT22;11785;49.500;8.288;2023-11-19T06:59:39;11.80;99.90
23233;DHT22;11785;49.500;8.288;2023-11-19T07:02:05;11.80;99.90
23233;DHT22;11785;49.500;8.288;2023-11-19T07:04:32;11.80;99.90
23233;DHT22;11785;49.500;8.288;2023-11-19T07:06:58;11.80;99.90
23233;DHT22;11785;49.500;8.288;2023-11-19T07:09:25;11.80;99.90
23233;DHT22;11785;49.500;8.288;2023-11-19T07:11:50;11.70;99.90
23233;DHT22;11785;49.500;8.288;2023-11-19T07:14:18;11.80;99.90
23233;DHT22;11785;49.500;8.288;2023-11-19T07:16:44;11.70;99.90
23233;DHT22;11785;49.500;8.288;2023-11-19T07:19:09;11.70;99.90
23233;DHT22;11785;49.500;8.288;2023-11-19T07:21:35;11.80;99.90
23233;DHT22;11785;49.500;8.288;2023-11-19T07:24:05;11.90;99.90
23233;DHT22;11785;49.500;8.288;2023-11-19T07:26:31;12.00;99.90
23233;DHT22;11785;49.500;8.288;2023-11-19T07:28:56;12.00;99.90
23233;DHT22;11785;49.500;8.288;2023-11-19T07:31:22;12.00;99.90
23233;DHT22;11785;49.500;8.288;2023-11-19T07:33:49;12.10;99.90
23233;DHT22;11785;49.500;8.288;2023-11-19T07:36:16;12.20;99.90
23233;DHT22;11785;49.500;8.288;2023-11-19T07:38:42;12.20;99.90
23233;DHT22;11785;49.500;8.288;2023-11-19T07:41:07;12.20;99.90
23233;DHT22;11785;49.500;8.288;2023-11-19T07:43:39;12.20;99.90
23233;DHT22;11785;49.500;8.288;2023-11-19T07:46:05;12.30;99.90
23233;DHT22;11785;49.500;8.288;2023-11-19T07:48:33;12.30;99.90
23233;DHT22;11785;49.500;8.288;2023-11-19T07:51:00;12.30;99.90
23233;DHT22;11785;49.500;8.288;2023-11-19T07:53:25;12.30;99.90
23233;DHT22;11785;49.500;8.288;2023-11-19T07:55:51;12.30;99.90
23233;DHT22;11785;49.500;8.288;2023-11-19T07:58:16;12.30;99.90
23233;DHT22;11785;49.500;8.288;2023-11-19T08:00:42;12.20;99.90
23233;DHT22;11785;49.500;8.288;2023-11-19T08:03:07;12.20;99.90
23233;DHT22;11785;49.500;8.288;2023-11-19T08:05:33;12.20;99.90
23233;DHT22;11785;49.500;8.288;2023-11-19T08:07:59;12.10;99.90
23233;DHT22;11785;49.500;8.288;2023-11-19T08:10:24;12.10;99.90
23233;DHT22;11785;49.500;8.288;2023-11-19T08:12:50;12.10;99.90
23233;DHT22;11785;49.500;8.288;2023-11-19T08:15:16;12.10;99.90
23233;DHT22;11785;49.500;8.288;2023-11-19T08:17:42;12.00;99.90
23233;DHT22;11785;49.500;8.288;2023-11-19T08:20:10;12.00;99.90
23233;DHT22;11785;49.500;8.288;2023-11-19T08:22:37;12.00;99.90
23233;DHT22;11785;49.500;8.288;2023-11-19T08:25:04;11.90;99.90
23233;DHT22;11785;49.500;8.288;2023-11-19T08:27:30;11.90;99.90
23233;DHT22;11785;49.500;8.288;2023-11-19T08:29:56;11.90;99.90
23233;DHT22;11785;49.500;8.288;2023-11-19T08:32:27;11.90;99.90
23233;DHT22;11785;49.500;8.288;2023-11-19T08:34:53;12.00;99.90
23233;DHT22;11785;49.500;8.288;2023-11-19T08:37:19;12.00;99.90
23233;DHT22;11785;49.500;8.288;2023-11-19T08:39:47;12.10;99.90
23233;DHT22;11785;49.500;8.288;2023-11-19T08:42:12;12.20;99.90
23233;DHT22;11785;49.500;8.288;2023-11-19T08:44:38;12.20;99.90
23233;DHT22;11785;49.500;8.288;2023-11-19T08:47:04;12.20;99.90
23233;DHT22;11785;49.500;8.288;2023-11-19T08:49:30;12.30;99.90
23233;DHT22;11785;49.500;8.288;2023-11-19T08:51:55;12.40;99.90
23233;DHT22;11785;49.500;8.288;2023-11-19T08:54:21;12.30;99.90
23233;DHT22;11785;49.500;8.288;2023-11-19T08:56:48;12.30;99.90
23233;DHT22;11785;49.500;8.288;2023-11-19T08:59:13;12.20;99.90
23233;DHT22;11785;49.500;8.288;2023-11-19T09:01:40;12.20;99.90
23233;DHT22;11785;49.500;8.288;2023-11-19T09:04:06;12.30;99.90
23233;DHT22;11785;49.500;8.288;2023-11-19T09:06:32;12.50;99.90
23233;DHT22;11785;49.500;8.288;2023-11-19T09:08:57;12.80;99.90
23233;DHT22;11785;49.500;8.288;2023-11-19T09:11:27;13.00;99.90
23233;DHT22;11785;49.500;8.288;2023-11-19T09:13:52;13.30;99.90
23233;DHT22;11785;49.500;8.288;2023-11-19T09:16:18;13.50;99.90
23233;DHT22;11785;49.500;8.288;2023-11-19T09:18:44;13.80;98.60
23233;DHT22;11785;49.500;8.288;2023-11-19T09:21:12;14.00;97.00
23233;DHT22;11785;49.500;8.288;2023-11-19T09:23:38;14.10;96.70
23233;DHT22;11785;49.500;8.288;2023-11-19T09:26:08;14.00;97.10
23233;DHT22;11785;49.500;8.288;2023-11-19T09:28:35;14.00;97.10
23233;DHT22;11785;49.500;8.288;2023-11-19T09:31:01;14.00;97.00
23233;DHT22;11785;49.500;8.288;2023-11-19T09:33:30;14.00;97.20
23233;DHT22;11785;49.500;8.288;2023-11-19T09:35:56;14.00;97.20
23233;DHT22;11785;49.500;8.288;2023-11-19T09:38:21;14.00;96.90
23233;DHT22;11785;49.500;8.288;2023-11-19T09:40:47;14.10;96.30
23233;DHT22;11785;49.500;8.288;2023-11-19T09:43:14;14.30;95.20
23233;DHT22;11785;49.500;8.288;2023-11-19T09:45:50;14.40;94.60
23233;DHT22;11785;49.500;8.288;2023-11-19T09:48:19;14.70;93.60
23233;DHT22;11785;49.500;8.288;2023-11-19T09:50:47;14.90;92.50
23233;DHT22;11785;49.500;8.288;2023-11-19T09:53:14;15.00;92.00
23233;DHT22;11785;49.500;8.288;2023-11-19T09:55:40;15.20;91.30
23233;DHT22;11785;49.500;8.288;2023-11-19T09:58:07;15.40;90.30
23233;DHT22;11785;49.500;8.288;2023-11-19T10:00:33;15.50;89.40
23233;DHT22;11785;49.500;8.288;2023-11-19T10:03:00;15.60;88.00
23233;DHT22;11785;49.500;8.288;2023-11-19T10:05:26;15.60;85.20
23233;DHT22;11785;49.500;8.288;2023-11-19T10:07:52;15.60;84.80
23233;DHT22;11785;49.500;8.288;2023-11-19T10:10:18;15.60;84.90
23233;DHT22;11785;49.500;8.288;2023-11-19T10:12:47;15.70;83.90
23233;DHT22;11785;49.500;8.288;2023-11-19T10:15:23;15.80;82.30
23233;DHT22;11785;49.500;8.288;2023-11-19T10:17:56;16.00;80.70
23233;DHT22;11785;49.500;8.288;2023-11-19T10:20:22;16.00;79.30
23233;DHT22;11785;49.500;8.288;2023-11-19T10:22:47;15.90;80.60
23233;DHT22;11785;49.500;8.288;2023-11-19T10:25:24;15.80;80.70
23233;DHT22;11785;49.500;8.288;2023-11-19T10:27:51;15.80;80.60
23233;DHT22;11785;49.500;8.288;2023-11-19T10:30:19;15.90;80.60
23233;DHT22;11785;49.500;8.288;2023-11-19T10:32:45;16.00;78.90
23233;DHT22;11785;49.500;8.288;2023-11-19T10:35:11;16.00;79.00
23233;DHT22;11785;49.500;8.288;2023-11-19T10:37:38;16.20;77.30
23233;DHT22;11785;49.500;8.288;2023-11-19T10:40:05;16.30;76.10
23233;DHT22;11785;49.500;8.288;2023-11-19T10:42:31;16.20;75.10
23233;DHT22;11785;49.500;8.288;2023-11-19T10:44:56;16.30;74.60
23233;DHT22;11785;49.500;8.288;2023-11-19T10:47:23;16.30;74.70
23233;DHT22;11785;49.500;8.288;2023-11-19T10:49:49;16.40;74.20
23233;DHT22;11785;49.500;8.288;2023-11-19T10:52:18;16.50;72.70
23233;DHT22;11785;49.500;8.288;2023-11-19T10:54:50;16.50;72.70
23233;DHT22;11785;49.500;8.288;2023-11-19T10:57:21;16.60;72.90
23233;DHT22;11785;49.500;8.288;2023-11-19T10:59:52;16.60;72.10
23233;DHT22;11785;49.500;8.288;2023-11-19T11:02:24;16.40;74.20
23233;DHT22;11785;49.500;8.288;2023-11-19T11:04:55;16.40;74.40
23233;DHT22;11785;49.500;8.288;2023-11-19T11:07:22;16.40;74.60
23233;DHT22;11785;49.500;8.288;2023-11-19T11:09:51;16.50;73.40
23233;DHT22;11785;49.500;8.288;2023-11-19T11:12:18;16.40;74.40
23233;DHT22;11785;49.500;8.288;2023-11-19T11:14:50;16.30;75.20
23233;DHT22;11785;49.500;8.288;2023-11-19T11:17:17;16.30;75.10
23233;DHT22;11785;49.500;8.288;2023-11-19T11:19:44;16.30;75.60
23233;DHT22;11785;49.500;8.288;2023-11-19T11:22:11;16.40;74.90
23233;DHT22;11785;49.500;8.288;2023-11-19T11:25:02;16.70;72.40
23233;DHT22;11785;49.500;8.288;2023-11-19T11:27:42;17.20;68.10
23233;DHT22;11785;49.500;8.288;2023-11-19T11:32:57;16.90;69.60
23233;DHT22;11785;49.500;8.288;2023-11-19T11:35:42;16.80;69.70
23233;DHT22;11785;49.500;8.288;2023-11-19T11:38:14;16.90;67.90
23233;DHT22;11785;49.500;8.288;2023-11-19T11:40:40;17.10;67.20
23233;DHT22;11785;49.500;8.288;2023-11-19T11:43:44;17.00;65.50
23233;DHT22;11785;49.500;8.288;2023-11-19T11:49:06;17.40;62.40
23233;DHT22;11785;49.500;8.288;2023-11-19T11:57:13;18.80;59.50
23233;DHT22;11785;49.500;8.288;2023-11-19T12:02:21;17.60;59.70
23233;DHT22;11785;49.500;8.288;2023-11-19T12:04:51;17.10;59.90
23233;DHT22;11785;49.500;8.288;2023-11-19T12:07:24;17.20;59.80
23233;DHT22;11785;49.500;8.288;2023-11-19T12:10:08;17.80;59.60
23233;DHT22;11785;49.500;8.288;2023-11-19T12:12:34;17.40;59.70
23233;DHT22;11785;49.500;8.288;2023-11-19T12:15:10;17.10;59.80
23233;DHT22;11785;49.500;8.288;2023-11-19T12:20:05;16.60;59.90
23233;DHT22;11785;49.500;8.288;2023-11-19T12:22:35;16.50;59.90
23233;DHT22;11785;49.500;8.288;2023-11-19T12:25:02;16.50;59.90
23233;DHT22;11785;49.500;8.288;2023-11-19T12:27:28;16.50;59.90
23233;DHT22;11785;49.500;8.288;2023-11-19T12:29:53;16.70;59.90
23233;DHT22;11785;49.500;8.288;2023-11-19T12:32:19;17.00;59.80
23233;DHT22;11785;49.500;8.288;2023-11-19T12:34:45;16.90;59.90
23233;DHT22;11785;49.500;8.288;2023-11-19T12:37:10;16.60;59.90
23233;DHT22;11785;49.500;8.288;2023-11-19T12:39:36;16.30;61.00
23233;DHT22;11785;49.500;8.288;2023-11-19T12:42:02;16.60;59.90
23233;DHT22;11785;49.500;8.288;2023-11-19T12:44:28;17.00;59.80
23233;DHT22;11785;49.500;8.288;2023-11-19T12:47:03;16.90;59.80
23233;DHT22;11785;49.500;8.288;2023-11-19T12:49:29;16.80;59.80
23233;DHT22;11785;49.500;8.288;2023-11-19T12:51:55;16.70;59.90
23233;DHT22;11785;49.500;8.288;2023-11-19T12:54:32;18.20;59.50
23233;DHT22;11785;49.500;8.288;2023-11-19T12:56:57;19.40;59.10
23233;DHT22;11785;49.500;8.288;2023-11-19T12:59:24;19.20;59.10
23233;DHT22;11785;49.500;8.288;2023-11-19T13:01:59;21.00;58.60
23233;DHT22;11785;49.500;8.288;2023-11-19T13:04:29;21.90;58.30
23233;DHT22;11785;49.500;8.288;2023-11-19T13:06:57;22.20;58.20
23233;DHT22;11785;49.500;8.288;2023-11-19T13:09:23;22.60;57.90
23233;DHT22;11785;49.500;8.288;2023-11-19T13:11:50;23.20;57.70
23233;DHT22;11785;49.500;8.288;2023-11-19T13:14:16;23.90;57.50
23233;DHT22;11785;49.500;8.288;2023-11-19T13:16:42;24.40;57.30
23233;DHT22;11785;49.500;8.288;2023-11-19T13:19:08;22.40;57.70
23233;DHT22;11785;49.500;8.288;2023-11-19T13:21:37;21.10;58.00
23233;DHT22;11785;49.500;8.288;2023-11-19T13:24:03;22.70;57.70
23233;DHT22;11785;49.500;8.288;2023-11-19T13:26:29;23.10;57.50
23233;DHT22;11785;49.500;8.288;2023-11-19T13:28:54;24.10;57.20
23233;DHT22;11785;49.500;8.288;2023-11-19T13:31:20;23.30;57.30
23233;DHT22;11785;49.500;8.288;2023-11-19T13:33:45;23.10;57.30
23233;DHT22;11785;49.500;8.288;2023-11-19T13:36:11;23.90;57.10
23233;DHT22;11785;49.500;8.288;2023-11-19T13:38:39;24.50;56.90
23233;DHT22;11785;49.500;8.288;2023-11-19T13:41:09;24.50;56.90
23233;DHT22;11785;49.500;8.288;2023-11-19T13:43:36;24.00;57.00
23233;DHT22;11785;49.500;8.288;2023-11-19T13:46:02;23.30;57.20
23233;DHT22;11785;49.500;8.288;2023-11-19T13:48:28;23.40;57.10
23233;DHT22;11785;49.500;8.288;2023-11-19T13:50:55;22.60;57.30
23233;DHT22;11785;49.500;8.288;2023-11-19T13:53:21;23.10;57.20
23233;DHT22;11785;49.500;8.288;2023-11-19T13:55:46;23.30;57.20
23233;DHT22;11785;49.500;8.288;2023-11-19T13:58:13;24.00;57.00
23233;DHT22;11785;49.500;8.288;2023-11-19T14:00:38;24.30;56.90
23233;DHT22;11785;49.500;8.288;2023-11-19T14:03:04;23.60;57.00
23233;DHT22;11785;49.500;8.288;2023-11-19T14:05:30;24.30;56.80
23233;DHT22;11785;49.500;8.288;2023-11-19T14:07:55;24.60;56.80
23233;DHT22;11785;49.500;8.288;2023-11-19T14:10:22;23.80;56.90
23233;DHT22;11785;49.500;8.288;2023-11-19T14:12:48;23.80;56.90
23233;DHT22;11785;49.500;8.288;2023-11-19T14:15:15;23.50;57.00
23233;DHT22;11785;49.500;8.288;2023-11-19T14:17:42;23.70;56.90
23233;DHT22;11785;49.500;8.288;2023-11-19T14:20:09;23.30;57.00
23233;DHT22;11785;49.500;8.288;2023-11-19T14:22:41;22.40;57.20
23233;DHT22;11785;49.500;8.288;2023-11-19T14:25:07;21.60;57.40
23233;DHT22;11785;49.500;8.288;2023-11-19T14:27:38;20.50;57.70
23233;DHT22;11785;49.500;8.288;2023-11-19T14:30:06;20.40;57.80
23233;DHT22;11785;49.500;8.288;2023-11-19T14:32:32;20.20;57.80
23233;DHT22;11785;49.500;8.288;2023-11-19T14:34:57;19.90;57.90
23233;DHT22;11785;49.500;8.288;2023-11-19T14:37:23;19.40;58.10
23233;DHT22;11785;49.500;8.288;2023-11-19T14:39:48;18.30;58.30
23233;DHT22;11785;49.500;8.288;2023-11-19T14:42:16;17.50;58.60
23233;DHT22;11785;49.500;8.288;2023-11-19T14:44:42;16.90;58.80
23233;DHT22;11785;49.500;8.288;2023-11-19T14:47:08;16.50;58.90
23233;DHT22;11785;49.500;8.288;2023-11-19T14:49:36;16.30;58.90
23233;DHT22;11785;49.500;8.288;2023-11-19T14:52:04;16.20;58.90
23233;DHT22;11785;49.500;8.288;2023-11-19T14:54:29;16.10;59.00
23233;DHT22;11785;49.500;8.288;2023-11-19T14:56:56;15.90;59.00
23233;DHT22;11785;49.500;8.288;2023-11-19T14:59:21;15.80;59.10
23233;DHT22;11785;49.500;8.288;2023-11-19T15:01:47;15.50;59.20
23233;DHT22;11785;49.500;8.288;2023-11-19T15:04:13;15.30;59.20
23233;DHT22;11785;49.500;8.288;2023-11-19T15:06:38;15.20;59.30
23233;DHT22;11785;49.500;8.288;2023-11-19T15:09:04;15.00;59.40
23233;DHT22;11785;49.500;8.288;2023-11-19T15:11:30;14.90;59.40
23233;DHT22;11785;49.500;8.288;2023-11-19T15:13:56;14.90;59.40
23233;DHT22;11785;49.500;8.288;2023-11-19T15:16:22;14.80;59.40
23233;DHT22;11785;49.500;8.288;2023-11-19T15:18:58;14.80;59.50
23233;DHT22;11785;49.500;8.288;2023-11-19T15:21:30;14.70;59.50
23233;DHT22;11785;49.500;8.288;2023-11-19T15:23:56;14.60;59.50
23233;DHT22;11785;49.500;8.288;2023-11-19T15:26:22;14.50;59.50
23233;DHT22;11785;49.500;8.288;2023-11-19T15:28:47;14.50;59.60
23233;DHT22;11785;49.500;8.288;2023-11-19T15:31:13;14.40;59.60
23233;DHT22;11785;49.500;8.288;2023-11-19T15:33:41;14.20;59.70
23233;DHT22;11785;49.500;8.288;2023-11-19T15:36:07;14.10;59.70
23233;DHT22;11785;49.500;8.288;2023-11-19T15:38:36;14.10;59.70
23233;DHT22;11785;49.500;8.288;2023-11-19T15:41:02;14.10;59.70
23233;DHT22;11785;49.500;8.288;2023-11-19T15:43:28;14.10;59.80
23233;DHT22;11785;49.500;8.288;2023-11-19T15:45:54;14.00;59.80
23233;DHT22;11785;49.500;8.288;2023-11-19T15:48:20;14.00;59.80